sensor_id;sensor_type;location;lat;lon;timestamp;P1;durP1;ratioP1;P2;durP2;ratioP2
32196;SDS011;18697;42.770;23.400;2024-03-07T00:01:57;36.75;;;23.83;;
32196;SDS011;18697;42.770;23.400;2024-03-07T00:04:22;35.38;;;24.50;;
32196;SDS011;18697;42.770;23.400;2024-03-07T00:06:48;38.20;;;25.02;;
32196;SDS011;18697;42.770;23.400;2024-03-07T00:09:13;35.80;;;25.05;;
32196;SDS011;18697;42.770;23.400;2024-03-07T00:11:40;40.47;;;24.67;;
32196;SDS011;18697;42.770;23.400;2024-03-07T00:14:05;40.45;;;26.05;;
32196;SDS011;18697;42.770;23.400;2024-03-07T00:16:31;48.83;;;28.92;;
32196;SDS011;18697;42.770;23.400;2024-03-07T00:18:58;39.80;;;25.55;;
32196;SDS011;18697;42.770;23.400;2024-03-07T00:21:24;37.47;;;24.15;;
32196;SDS011;18697;42.770;23.400;2024-03-07T00:23:49;35.72;;;24.35;;
32196;SDS011;18697;42.770;23.400;2024-03-07T00:26:14;33.53;;;23.67;;
32196;SDS011;18697;42.770;23.400;2024-03-07T00:28:40;36.42;;;24.23;;
32196;SDS011;18697;42.770;23.400;2024-03-07T00:31:05;40.35;;;24.77;;
32196;SDS011;18697;42.770;23.400;2024-03-07T00:33:32;34.08;;;25.00;;
32196;SDS011;18697;42.770;23.400;2024-03-07T00:35:58;39.95;;;24.77;;
32196;SDS011;18697;42.770;23.400;2024-03-07T00:38:24;34.15;;;23.48;;
32196;SDS011;18697;42.770;23.400;2024-03-07T00:40:50;34.78;;;22.95;;
32196;SDS011;18697;42.770;23.400;2024-03-07T00:43:15;35.25;;;22.45;;
32196;SDS011;18697;42.770;23.400;2024-03-07T00:45:40;35.15;;;22.55;;
32196;SDS011;18697;42.770;23.400;2024-03-07T00:48:06;32.13;;;21.55;;
32196;SDS011;18697;42.770;23.400;2024-03-07T00:50:31;34.38;;;22.50;;
32196;SDS011;18697;42.770;23.400;2024-03-07T00:52:57;34.90;;;20.98;;
32196;SDS011;18697;42.770;23.400;2024-03-07T00:55:22;32.90;;;22.02;;
32196;SDS011;18697;42.770;23.400;2024-03-07T00:57:48;39.58;;;23.05;;
32196;SDS011;18697;42.770;23.400;2024-03-07T01:00:13;35.03;;;21.65;;
32196;SDS011;18697;42.770;23.400;2024-03-07T01:02:42;32.28;;;21.67;;
32196;SDS011;18697;42.770;23.400;2024-03-07T01:05:12;35.67;;;20.85;;
32196;SDS011;18697;42.770;23.400;2024-03-07T01:07:38;37.65;;;21.48;;
32196;SDS011;18697;42.770;23.400;2024-03-07T01:10:05;33.08;;;19.95;;
32196;SDS011;18697;42.770;23.400;2024-03-07T01:12:31;34.88;;;21.95;;
32196;SDS011;18697;42.770;23.400;2024-03-07T01:14:59;31.77;;;19.17;;
32196;SDS011;18697;42.770;23.400;2024-03-07T01:17:25;27.88;;;19.02;;
32196;SDS011;18697;42.770;23.400;2024-03-07T01:19:51;28.13;;;18.20;;
32196;SDS011;18697;42.770;23.400;2024-03-07T01:22:16;28.80;;;19.10;;
32196;SDS011;18697;42.770;23.400;2024-03-07T01:24:41;33.28;;;18.85;;
32196;SDS011;18697;42.770;23.400;2024-03-07T01:27:07;27.75;;;18.40;;
32196;SDS011;18697;42.770;23.400;2024-03-07T01:29:32;28.38;;;18.60;;
32196;SDS011;18697;42.770;23.400;2024-03-07T01:31:57;33.08;;;17.70;;
32196;SDS011;18697;42.770;23.400;2024-03-07T01:34:23;27.35;;;18.38;;
32196;SDS011;18697;42.770;23.400;2024-03-07T01:36:48;28.95;;;18.45;;
32196;SDS011;18697;42.770;23.400;2024-03-07T01:39:14;27.35;;;17.63;;
32196;SDS011;18697;42.770;23.400;2024-03-07T01:41:39;23.08;;;16.10;;
32196;SDS011;18697;42.770;23.400;2024-03-07T01:44:05;28.35;;;18.83;;
32196;SDS011;18697;42.770;23.400;2024-03-07T01:46:32;27.27;;;16.80;;
32196;SDS011;18697;42.770;23.400;2024-03-07T01:48:57;26.58;;;16.98;;
32196;SDS011;18697;42.770;23.400;2024-03-07T01:51:23;29.38;;;18.15;;
32196;SDS011;18697;42.770;23.400;2024-03-07T01:53:49;29.33;;;18.35;;
32196;SDS011;18697;42.770;23.400;2024-03-07T01:56:15;30.02;;;17.92;;
32196;SDS011;18697;42.770;23.400;2024-03-07T01:58:41;26.85;;;17.67;;
32196;SDS011;18697;42.770;23.400;2024-03-07T02:01:08;30.02;;;18.20;;
32196;SDS011;18697;42.770;23.400;2024-03-07T02:03:34;31.30;;;18.00;;
32196;SDS011;18697;42.770;23.400;2024-03-07T02:06:01;33.78;;;18.40;;
32196;SDS011;18697;42.770;23.400;2024-03-07T02:08:27;29.75;;;18.83;;
32196;SDS011;18697;42.770;23.400;2024-03-07T02:10:53;30.45;;;18.50;;
32196;SDS011;18697;42.770;23.400;2024-03-07T02:13:18;26.23;;;17.15;;
32196;SDS011;18697;42.770;23.400;2024-03-07T02:15:44;29.10;;;18.58;;
32196;SDS011;18697;42.770;23.400;2024-03-07T02:18:09;27.98;;;18.73;;
32196;SDS011;18697;42.770;23.400;2024-03-07T02:20:35;30.40;;;18.98;;
32196;SDS011;18697;42.770;23.400;2024-03-07T02:23:00;35.33;;;19.45;;
32196;SDS011;18697;42.770;23.400;2024-03-07T02:25:25;30.05;;;18.40;;
32196;SDS011;18697;42.770;23.400;2024-03-07T02:27:51;27.83;;;18.65;;
32196;SDS011;18697;42.770;23.400;2024-03-07T02:30:16;31.55;;;19.42;;
32196;SDS011;18697;42.770;23.400;2024-03-07T02:32:45;31.88;;;19.88;;
32196;SDS011;18697;42.770;23.400;2024-03-07T02:35:16;36.17;;;20.90;;
32196;SDS011;18697;42.770;23.400;2024-03-07T02:37:43;32.65;;;20.80;;
32196;SDS011;18697;42.770;23.400;2024-03-07T02:40:11;35.35;;;20.67;;
32196;SDS011;18697;42.770;23.400;2024-03-07T02:42:36;29.70;;;19.55;;
32196;SDS011;18697;42.770;23.400;2024-03-07T02:45:03;34.80;;;19.80;;
32196;SDS011;18697;42.770;23.400;2024-03-07T02:47:30;35.63;;;20.33;;
32196;SDS011;18697;42.770;23.400;2024-03-07T02:49:55;29.65;;;20.08;;
32196;SDS011;18697;42.770;23.400;2024-03-07T02:52:20;29.00;;;19.55;;
32196;SDS011;18697;42.770;23.400;2024-03-07T02:54:46;27.70;;;18.33;;
32196;SDS011;18697;42.770;23.400;2024-03-07T02:57:11;25.67;;;17.38;;
32196;SDS011;18697;42.770;23.400;2024-03-07T02:59:36;27.92;;;17.88;;
32196;SDS011;18697;42.770;23.400;2024-03-07T03:02:02;23.38;;;15.85;;
32196;SDS011;18697;42.770;23.400;2024-03-07T03:04:27;23.30;;;14.50;;
32196;SDS011;18697;42.770;23.400;2024-03-07T03:06:52;21.63;;;13.98;;
32196;SDS011;18697;42.770;23.400;2024-03-07T03:09:18;19.23;;;13.70;;
32196;SDS011;18697;42.770;23.400;2024-03-07T03:11:44;23.63;;;14.15;;
32196;SDS011;18697;42.770;23.400;2024-03-07T03:14:10;20.08;;;13.57;;
32196;SDS011;18697;42.770;23.400;2024-03-07T03:16:41;17.40;;;12.20;;
32196;SDS011;18697;42.770;23.400;2024-03-07T03:19:10;13.88;;;10.20;;
32196;SDS011;18697;42.770;23.400;2024-03-07T03:21:36;12.90;;;9.32;;
32196;SDS011;18697;42.770;23.400;2024-03-07T03:24:01;12.25;;;7.97;;
32196;SDS011;18697;42.770;23.400;2024-03-07T03:26:27;10.18;;;8.00;;
32196;SDS011;18697;42.770;23.400;2024-03-07T03:28:53;13.02;;;8.50;;
32196;SDS011;18697;42.770;23.400;2024-03-07T03:31:19;7.28;;;6.05;;
32196;SDS011;18697;42.770;23.400;2024-03-07T03:33:45;6.80;;;5.35;;
32196;SDS011;18697;42.770;23.400;2024-03-07T03:36:10;7.30;;;5.78;;
32196;SDS011;18697;42.770;23.400;2024-03-07T03:38:36;6.25;;;4.85;;
32196;SDS011;18697;42.770;23.400;2024-03-07T03:41:01;4.63;;;4.20;;
32196;SDS011;18697;42.770;23.400;2024-03-07T03:43:27;5.13;;;4.18;;
32196;SDS011;18697;42.770;23.400;2024-03-07T03:45:52;6.68;;;4.35;;
32196;SDS011;18697;42.770;23.400;2024-03-07T03:48:18;4.32;;;3.90;;
32196;SDS011;18697;42.770;23.400;2024-03-07T03:50:43;6.90;;;3.67;;
32196;SDS011;18697;42.770;23.400;2024-03-07T03:53:08;11.68;;;6.03;;
32196;SDS011;18697;42.770;23.400;2024-03-07T03:55:34;9.15;;;4.57;;
32196;SDS011;18697;42.770;23.400;2024-03-07T03:57:59;6.88;;;6.03;;
32196;SDS011;18697;42.770;23.400;2024-03-07T04:00:25;5.82;;;5.00;;
32196;SDS011;18697;42.770;23.400;2024-03-07T04:02:50;5.07;;;4.50;;
32196;SDS011;18697;42.770;23.400;2024-03-07T04:05:16;5.90;;;4.93;;
32196;SDS011;18697;42.770;23.400;2024-03-07T04:07:44;6.15;;;4.65;;
32196;SDS011;18697;42.770;23.400;2024-03-07T04:10:10;6.40;;;4.93;;
32196;SDS011;18697;42.770;23.400;2024-03-07T04:12:36;6.18;;;5.00;;
32196;SDS011;18697;42.770;23.400;2024-03-07T04:15:06;6.90;;;5.32;;
32196;SDS011;18697;42.770;23.400;2024-03-07T04:17:41;7.70;;;5.88;;
32196;SDS011;18697;42.770;23.400;2024-03-07T04:20:07;6.22;;;5.63;;
32196;SDS011;18697;42.770;23.400;2024-03-07T04:22:35;6.63;;;5.97;;
32196;SDS011;18697;42.770;23.400;2024-03-07T04:25:04;8.80;;;6.97;;
32196;SDS011;18697;42.770;23.400;2024-03-07T04:27:31;9.90;;;7.75;;
32196;SDS011;18697;42.770;23.400;2024-03-07T04:29:57;9.45;;;7.65;;
32196;SDS011;18697;42.770;23.400;2024-03-07T04:32:23;8.57;;;6.93;;
32196;SDS011;18697;42.770;23.400;2024-03-07T04:34:48;7.95;;;6.40;;
32196;SDS011;18697;42.770;23.400;2024-03-07T04:37:14;14.48;;;8.55;;
32196;SDS011;18697;42.770;23.400;2024-03-07T04:39:39;9.05;;;6.55;;
32196;SDS011;18697;42.770;23.400;2024-03-07T04:42:05;11.68;;;8.10;;
32196;SDS011;18697;42.770;23.400;2024-03-07T04:44:32;11.32;;;8.43;;
32196;SDS011;18697;42.770;23.400;2024-03-07T04:47:00;11.70;;;8.40;;
32196;SDS011;18697;42.770;23.400;2024-03-07T04:49:27;9.18;;;7.57;;
32196;SDS011;18697;42.770;23.400;2024-03-07T04:51:54;8.07;;;7.18;;
32196;SDS011;18697;42.770;23.400;2024-03-07T04:54:21;9.30;;;7.00;;
32196;SDS011;18697;42.770;23.400;2024-03-07T04:56:47;8.68;;;6.03;;
32196;SDS011;18697;42.770;23.400;2024-03-07T04:59:13;7.88;;;6.43;;
32196;SDS011;18697;42.770;23.400;2024-03-07T05:01:39;6.72;;;5.25;;
32196;SDS011;18697;42.770;23.400;2024-03-07T05:04:08;5.93;;;4.95;;
32196;SDS011;18697;42.770;23.400;2024-03-07T05:06:34;5.88;;;4.65;;
32196;SDS011;18697;42.770;23.400;2024-03-07T05:09:00;4.68;;;4.18;;
32196;SDS011;18697;42.770;23.400;2024-03-07T05:11:29;4.65;;;4.25;;
32196;SDS011;18697;42.770;23.400;2024-03-07T05:13:55;3.65;;;3.35;;
32196;SDS011;18697;42.770;23.400;2024-03-07T05:16:22;3.85;;;3.55;;
32196;SDS011;18697;42.770;23.400;2024-03-07T05:18:48;4.85;;;3.22;;
32196;SDS011;18697;42.770;23.400;2024-03-07T05:21:15;3.05;;;2.85;;
32196;SDS011;18697;42.770;23.400;2024-03-07T05:24:02;3.50;;;3.20;;
32196;SDS011;18697;42.770;23.400;2024-03-07T05:26:29;3.40;;;3.10;;
32196;SDS011;18697;42.770;23.400;2024-03-07T05:31:36;10.18;;;7.13;;
32196;SDS011;18697;42.770;23.400;2024-03-07T05:34:06;3.90;;;3.60;;
32196;SDS011;18697;42.770;23.400;2024-03-07T05:36:35;3.35;;;3.10;;
32196;SDS011;18697;42.770;23.400;2024-03-07T05:39:01;6.20;;;3.67;;
32196;SDS011;18697;42.770;23.400;2024-03-07T05:41:34;3.78;;;3.35;;
32196;SDS011;18697;42.770;23.400;2024-03-07T05:44:00;4.97;;;4.18;;
32196;SDS011;18697;42.770;23.400;2024-03-07T05:46:25;8.10;;;5.30;;
32196;SDS011;18697;42.770;23.400;2024-03-07T05:48:51;7.95;;;6.30;;
32196;SDS011;18697;42.770;23.400;2024-03-07T05:51:21;8.35;;;6.47;;
32196;SDS011;18697;42.770;23.400;2024-03-07T05:53:49;7.25;;;5.90;;
32196;SDS011;18697;42.770;23.400;2024-03-07T05:56:15;4.78;;;4.00;;
32196;SDS011;18697;42.770;23.400;2024-03-07T05:58:41;6.50;;;4.55;;
32196;SDS011;18697;42.770;23.400;2024-03-07T06:01:06;5.13;;;3.75;;
32196;SDS011;18697;42.770;23.400;2024-03-07T06:03:33;6.05;;;4.50;;
32196;SDS011;18697;42.770;23.400;2024-03-07T06:05:59;8.60;;;5.80;;
32196;SDS011;18697;42.770;23.400;2024-03-07T06:08:24;6.15;;;5.00;;
32196;SDS011;18697;42.770;23.400;2024-03-07T06:10:50;5.57;;;4.45;;
32196;SDS011;18697;42.770;23.400;2024-03-07T06:13:16;4.80;;;4.05;;
32196;SDS011;18697;42.770;23.400;2024-03-07T06:15:45;5.28;;;3.50;;
32196;SDS011;18697;42.770;23.400;2024-03-07T06:18:11;3.92;;;3.63;;
32196;SDS011;18697;42.770;23.400;2024-03-07T06:20:38;3.28;;;3.08;;
32196;SDS011;18697;42.770;23.400;2024-03-07T06:23:07;4.25;;;3.85;;
32196;SDS011;18697;42.770;23.400;2024-03-07T06:25:34;10.10;;;4.30;;
32196;SDS011;18697;42.770;23.400;2024-03-07T06:28:04;5.53;;;4.45;;
32196;SDS011;18697;42.770;23.400;2024-03-07T06:30:38;6.13;;;4.47;;
32196;SDS011;18697;42.770;23.400;2024-03-07T06:33:05;3.55;;;3.25;;
32196;SDS011;18697;42.770;23.400;2024-03-07T06:35:31;5.43;;;3.95;;
32196;SDS011;18697;42.770;23.400;2024-03-07T06:37:57;4.93;;;4.07;;
32196;SDS011;18697;42.770;23.400;2024-03-07T06:40:22;6.13;;;3.95;;
32196;SDS011;18697;42.770;23.400;2024-03-07T06:42:50;4.25;;;3.80;;
32196;SDS011;18697;42.770;23.400;2024-03-07T06:45:17;7.85;;;6.35;;
32196;SDS011;18697;42.770;23.400;2024-03-07T06:47:43;11.27;;;8.25;;
32196;SDS011;18697;42.770;23.400;2024-03-07T06:50:09;8.00;;;5.55;;
32196;SDS011;18697;42.770;23.400;2024-03-07T06:52:35;6.95;;;6.13;;
32196;SDS011;18697;42.770;23.400;2024-03-07T06:55:01;6.65;;;5.07;;
32196;SDS011;18697;42.770;23.400;2024-03-07T06:57:28;5.20;;;4.38;;
32196;SDS011;18697;42.770;23.400;2024-03-07T06:59:54;5.45;;;4.28;;
32196;SDS011;18697;42.770;23.400;2024-03-07T07:02:20;5.18;;;4.32;;
32196;SDS011;18697;42.770;23.400;2024-03-07T07:04:45;7.15;;;4.90;;
32196;SDS011;18697;42.770;23.400;2024-03-07T07:07:12;27.95;;;13.70;;
32196;SDS011;18697;42.770;23.400;2024-03-07T07:09:39;13.43;;;8.13;;
32196;SDS011;18697;42.770;23.400;2024-03-07T07:12:05;6.32;;;5.25;;
32196;SDS011;18697;42.770;23.400;2024-03-07T07:14:30;6.43;;;4.53;;
32196;SDS011;18697;42.770;23.400;2024-03-07T07:16:55;10.45;;;6.47;;
32196;SDS011;18697;42.770;23.400;2024-03-07T07:19:21;12.38;;;6.78;;
32196;SDS011;18697;42.770;23.400;2024-03-07T07:21:47;22.73;;;11.00;;
32196;SDS011;18697;42.770;23.400;2024-03-07T07:24:18;10.55;;;7.10;;
32196;SDS011;18697;42.770;23.400;2024-03-07T07:26:44;7.78;;;5.32;;
32196;SDS011;18697;42.770;23.400;2024-03-07T07:29:10;15.95;;;9.48;;
32196;SDS011;18697;42.770;23.400;2024-03-07T07:31:36;5.78;;;5.07;;
32196;SDS011;18697;42.770;23.400;2024-03-07T07:34:01;7.20;;;4.45;;
32196;SDS011;18697;42.770;23.400;2024-03-07T07:36:29;6.18;;;4.57;;
32196;SDS011;18697;42.770;23.400;2024-03-07T07:38:54;8.35;;;5.13;;
32196;SDS011;18697;42.770;23.400;2024-03-07T07:41:20;20.90;;;9.23;;
32196;SDS011;18697;42.770;23.400;2024-03-07T07:43:45;7.90;;;4.97;;
32196;SDS011;18697;42.770;23.400;2024-03-07T07:46:10;4.93;;;4.43;;
32196;SDS011;18697;42.770;23.400;2024-03-07T07:48:36;20.15;;;9.18;;
32196;SDS011;18697;42.770;23.400;2024-03-07T07:51:02;6.15;;;4.50;;
32196;SDS011;18697;42.770;23.400;2024-03-07T07:53:30;10.95;;;5.15;;
32196;SDS011;18697;42.770;23.400;2024-03-07T07:55:55;3.33;;;3.03;;
32196;SDS011;18697;42.770;23.400;2024-03-07T07:58:20;3.30;;;3.00;;
32196;SDS011;18697;42.770;23.400;2024-03-07T08:00:46;3.50;;;3.20;;
32196;SDS011;18697;42.770;23.400;2024-03-07T08:03:13;17.88;;;7.85;;
32196;SDS011;18697;42.770;23.400;2024-03-07T08:05:40;7.05;;;4.22;;
32196;SDS011;18697;42.770;23.400;2024-03-07T08:08:07;13.15;;;6.03;;
32196;SDS011;18697;42.770;23.400;2024-03-07T08:10:34;7.43;;;4.60;;
32196;SDS011;18697;42.770;23.400;2024-03-07T08:13:00;7.38;;;4.53;;
32196;SDS011;18697;42.770;23.400;2024-03-07T08:15:28;7.28;;;4.60;;
32196;SDS011;18697;42.770;23.400;2024-03-07T08:17:54;7.13;;;4.80;;
32196;SDS011;18697;42.770;23.400;2024-03-07T08:20:20;20.58;;;10.90;;
32196;SDS011;18697;42.770;23.400;2024-03-07T08:22:47;17.30;;;9.10;;
32196;SDS011;18697;42.770;23.400;2024-03-07T08:25:16;7.47;;;4.25;;
32196;SDS011;18697;42.770;23.400;2024-03-07T08:27:44;13.60;;;6.63;;
32196;SDS011;18697;42.770;23.400;2024-03-07T08:30:12;13.52;;;6.57;;
32196;SDS011;18697;42.770;23.400;2024-03-07T08:32:41;18.13;;;7.60;;
32196;SDS011;18697;42.770;23.400;2024-03-07T08:35:09;10.57;;;5.80;;
32196;SDS011;18697;42.770;23.400;2024-03-07T08:37:48;22.83;;;8.13;;
32196;SDS011;18697;42.770;23.400;2024-03-07T08:40:17;11.35;;;5.82;;
32196;SDS011;18697;42.770;23.400;2024-03-07T08:42:47;7.43;;;3.60;;
32196;SDS011;18697;42.770;23.400;2024-03-07T08:45:15;15.38;;;6.28;;
32196;SDS011;18697;42.770;23.400;2024-03-07T08:47:44;18.83;;;7.13;;
32196;SDS011;18697;42.770;23.400;2024-03-07T08:50:11;4.03;;;3.60;;
32196;SDS011;18697;42.770;23.400;2024-03-07T08:52:39;9.23;;;5.38;;
32196;SDS011;18697;42.770;23.400;2024-03-07T08:55:05;9.07;;;4.45;;
32196;SDS011;18697;42.770;23.400;2024-03-07T08:57:35;5.13;;;3.65;;
32196;SDS011;18697;42.770;23.400;2024-03-07T09:00:01;16.75;;;6.10;;
32196;SDS011;18697;42.770;23.400;2024-03-07T09:02:33;15.43;;;5.70;;
32196;SDS011;18697;42.770;23.400;2024-03-07T09:05:03;8.50;;;4.28;;
32196;SDS011;18697;42.770;23.400;2024-03-07T09:07:29;21.38;;;9.07;;
32196;SDS011;18697;42.770;23.400;2024-03-07T09:09:55;15.65;;;7.95;;
32196;SDS011;18697;42.770;23.400;2024-03-07T09:12:20;11.88;;;6.72;;
32196;SDS011;18697;42.770;23.400;2024-03-07T09:14:46;20.27;;;7.43;;
32196;SDS011;18697;42.770;23.400;2024-03-07T09:17:11;23.05;;;7.30;;
32196;SDS011;18697;42.770;23.400;2024-03-07T09:19:37;7.28;;;4.72;;
32196;SDS011;18697;42.770;23.400;2024-03-07T09:22:03;7.30;;;4.70;;
32196;SDS011;18697;42.770;23.400;2024-03-07T09:24:29;4.25;;;3.85;;
32196;SDS011;18697;42.770;23.400;2024-03-07T09:26:56;5.40;;;4.13;;
32196;SDS011;18697;42.770;23.400;2024-03-07T09:29:22;10.10;;;5.65;;
32196;SDS011;18697;42.770;23.400;2024-03-07T09:31:51;15.93;;;7.82;;
32196;SDS011;18697;42.770;23.400;2024-03-07T09:34:20;5.57;;;4.65;;
32196;SDS011;18697;42.770;23.400;2024-03-07T09:36:49;7.70;;;5.55;;
32196;SDS011;18697;42.770;23.400;2024-03-07T09:39:15;12.35;;;5.53;;
32196;SDS011;18697;42.770;23.400;2024-03-07T09:41:41;4.90;;;3.85;;
32196;SDS011;18697;42.770;23.400;2024-03-07T09:44:12;9.90;;;5.32;;
32196;SDS011;18697;42.770;23.400;2024-03-07T09:46:41;9.65;;;5.30;;
32196;SDS011;18697;42.770;23.400;2024-03-07T09:49:08;20.92;;;9.88;;
32196;SDS011;18697;42.770;23.400;2024-03-07T09:51:36;20.63;;;9.55;;
32196;SDS011;18697;42.770;23.400;2024-03-07T09:54:02;4.43;;;3.67;;
32196;SDS011;18697;42.770;23.400;2024-03-07T09:56:29;11.02;;;5.03;;
32196;SDS011;18697;42.770;23.400;2024-03-07T09:59:01;20.35;;;8.50;;
32196;SDS011;18697;42.770;23.400;2024-03-07T10:01:29;5.95;;;3.58;;
32196;SDS011;18697;42.770;23.400;2024-03-07T10:03:59;16.88;;;7.30;;
32196;SDS011;18697;42.770;23.400;2024-03-07T10:06:35;6.45;;;3.95;;
32196;SDS011;18697;42.770;23.400;2024-03-07T10:09:00;19.13;;;6.32;;
32196;SDS011;18697;42.770;23.400;2024-03-07T10:11:26;42.38;;;14.15;;
32196;SDS011;18697;42.770;23.400;2024-03-07T10:13:52;42.55;;;14.05;;
32196;SDS011;18697;42.770;23.400;2024-03-07T10:16:18;23.05;;;10.13;;
32196;SDS011;18697;42.770;23.400;2024-03-07T10:18:43;17.95;;;7.28;;
32196;SDS011;18697;42.770;23.400;2024-03-07T10:21:12;3.65;;;2.80;;
32196;SDS011;18697;42.770;23.400;2024-03-07T10:23:38;32.20;;;11.38;;
32196;SDS011;18697;42.770;23.400;2024-03-07T10:26:05;35.50;;;11.82;;
32196;SDS011;18697;42.770;23.400;2024-03-07T10:28:31;22.15;;;10.02;;
32196;SDS011;18697;42.770;23.400;2024-03-07T10:30:58;5.65;;;4.18;;
32196;SDS011;18697;42.770;23.400;2024-03-07T10:33:28;7.50;;;5.10;;
32196;SDS011;18697;42.770;23.400;2024-03-07T10:35:57;8.40;;;5.90;;
32196;SDS011;18697;42.770;23.400;2024-03-07T10:38:23;14.13;;;8.15;;
32196;SDS011;18697;42.770;23.400;2024-03-07T10:40:52;15.80;;;7.05;;
32196;SDS011;18697;42.770;23.400;2024-03-07T10:43:20;12.68;;;6.53;;
32196;SDS011;18697;42.770;23.400;2024-03-07T10:45:47;6.18;;;4.70;;
32196;SDS011;18697;42.770;23.400;2024-03-07T10:48:17;15.90;;;6.63;;
32196;SDS011;18697;42.770;23.400;2024-03-07T10:53:15;9.70;;;5.10;;
32196;SDS011;18697;42.770;23.400;2024-03-07T10:58:40;15.95;;;8.43;;
32196;SDS011;18697;42.770;23.400;2024-03-07T11:01:12;36.72;;;13.95;;
32196;SDS011;18697;42.770;23.400;2024-03-07T11:03:39;11.77;;;5.97;;
32196;SDS011;18697;42.770;23.400;2024-03-07T11:06:06;7.72;;;5.78;;
32196;SDS011;18697;42.770;23.400;2024-03-07T11:08:36;16.15;;;7.53;;
32196;SDS011;18697;42.770;23.400;2024-03-07T11:11:02;18.33;;;7.55;;
32196;SDS011;18697;42.770;23.400;2024-03-07T11:13:28;10.05;;;5.05;;
32196;SDS011;18697;42.770;23.400;2024-03-07T11:15:55;25.20;;;13.30;;
32196;SDS011;18697;42.770;23.400;2024-03-07T11:18:25;8.60;;;5.88;;
32196;SDS011;18697;42.770;23.400;2024-03-07T11:20:51;9.75;;;6.75;;
32196;SDS011;18697;42.770;23.400;2024-03-07T11:23:26;10.18;;;5.60;;
32196;SDS011;18697;42.770;23.400;2024-03-07T11:26:05;13.65;;;6.95;;
32196;SDS011;18697;42.770;23.400;2024-03-07T11:28:43;10.82;;;5.63;;
32196;SDS011;18697;42.770;23.400;2024-03-07T11:31:12;10.05;;;5.75;;
32196;SDS011;18697;42.770;23.400;2024-03-07T11:33:39;11.98;;;5.82;;
32196;SDS011;18697;42.770;23.400;2024-03-07T11:36:06;19.40;;;7.85;;
32196;SDS011;18697;42.770;23.400;2024-03-07T11:38:45;10.10;;;5.35;;
32196;SDS011;18697;42.770;23.400;2024-03-07T11:41:13;14.73;;;6.93;;
32196;SDS011;18697;42.770;23.400;2024-03-07T11:43:40;14.02;;;7.25;;
32196;SDS011;18697;42.770;23.400;2024-03-07T11:46:07;10.43;;;5.05;;
32196;SDS011;18697;42.770;23.400;2024-03-07T11:48:40;8.70;;;5.07;;
32196;SDS011;18697;42.770;23.400;2024-03-07T11:51:12;12.55;;;5.40;;
32196;SDS011;18697;42.770;23.400;2024-03-07T11:53:38;6.05;;;4.45;;
32196;SDS011;18697;42.770;23.400;2024-03-07T11:56:04;14.80;;;6.68;;
32196;SDS011;18697;42.770;23.400;2024-03-07T11:58:41;9.32;;;4.68;;
32196;SDS011;18697;42.770;23.400;2024-03-07T12:01:06;7.25;;;4.78;;
32196;SDS011;18697;42.770;23.400;2024-03-07T12:03:38;5.60;;;4.65;;
32196;SDS011;18697;42.770;23.400;2024-03-07T12:06:04;5.80;;;4.30;;
32196;SDS011;18697;42.770;23.400;2024-03-07T12:08:30;11.65;;;5.20;;
32196;SDS011;18697;42.770;23.400;2024-03-07T12:10:56;9.98;;;5.60;;
32196;SDS011;18697;42.770;23.400;2024-03-07T12:13:22;16.33;;;6.88;;
32196;SDS011;18697;42.770;23.400;2024-03-07T12:15:49;10.77;;;6.28;;
32196;SDS011;18697;42.770;23.400;2024-03-07T12:18:16;13.18;;;7.32;;
32196;SDS011;18697;42.770;23.400;2024-03-07T12:20:45;12.80;;;8.05;;
32196;SDS011;18697;42.770;23.400;2024-03-07T12:23:19;11.57;;;7.93;;
32196;SDS011;18697;42.770;23.400;2024-03-07T12:25:47;11.07;;;7.45;;
32196;SDS011;18697;42.770;23.400;2024-03-07T12:28:13;13.20;;;7.50;;
32196;SDS011;18697;42.770;23.400;2024-03-07T12:33:10;8.77;;;6.60;;
32196;SDS011;18697;42.770;23.400;2024-03-07T12:35:39;12.15;;;7.53;;
32196;SDS011;18697;42.770;23.400;2024-03-07T12:38:07;13.32;;;7.50;;
32196;SDS011;18697;42.770;23.400;2024-03-07T12:40:35;11.27;;;8.18;;
32196;SDS011;18697;42.770;23.400;2024-03-07T12:43:02;21.17;;;10.63;;
32196;SDS011;18697;42.770;23.400;2024-03-07T12:45:37;17.63;;;9.25;;
32196;SDS011;18697;42.770;23.400;2024-03-07T12:48:03;21.70;;;12.27;;
32196;SDS011;18697;42.770;23.400;2024-03-07T12:50:29;13.18;;;8.77;;
32196;SDS011;18697;42.770;23.400;2024-03-07T12:52:55;34.03;;;15.52;;
32196;SDS011;18697;42.770;23.400;2024-03-07T12:55:20;37.17;;;15.73;;
32196;SDS011;18697;42.770;23.400;2024-03-07T12:57:48;12.90;;;9.43;;
32196;SDS011;18697;42.770;23.400;2024-03-07T13:00:15;10.00;;;7.80;;
32196;SDS011;18697;42.770;23.400;2024-03-07T13:02:47;12.73;;;8.40;;
32196;SDS011;18697;42.770;23.400;2024-03-07T13:05:13;11.52;;;8.18;;
32196;SDS011;18697;42.770;23.400;2024-03-07T13:07:47;10.73;;;7.70;;
32196;SDS011;18697;42.770;23.400;2024-03-07T13:10:14;9.40;;;7.28;;
32196;SDS011;18697;42.770;23.400;2024-03-07T13:12:41;11.23;;;8.38;;
32196;SDS011;18697;42.770;23.400;2024-03-07T13:15:09;8.27;;;6.93;;
32196;SDS011;18697;42.770;23.400;2024-03-07T13:17:35;15.18;;;7.63;;
32196;SDS011;18697;42.770;23.400;2024-03-07T13:20:01;10.40;;;6.97;;
32196;SDS011;18697;42.770;23.400;2024-03-07T13:22:26;7.45;;;6.22;;
32196;SDS011;18697;42.770;23.400;2024-03-07T13:24:52;8.10;;;6.22;;
32196;SDS011;18697;42.770;23.400;2024-03-07T13:27:18;6.50;;;5.68;;
32196;SDS011;18697;42.770;23.400;2024-03-07T13:29:53;7.25;;;5.57;;
32196;SDS011;18697;42.770;23.400;2024-03-07T13:32:18;6.28;;;5.20;;
32196;SDS011;18697;42.770;23.400;2024-03-07T13:34:43;8.63;;;6.32;;
32196;SDS011;18697;42.770;23.400;2024-03-07T13:37:10;7.15;;;4.75;;
32196;SDS011;18697;42.770;23.400;2024-03-07T13:39:43;6.03;;;5.10;;
32196;SDS011;18697;42.770;23.400;2024-03-07T13:42:08;6.07;;;5.05;;
32196;SDS011;18697;42.770;23.400;2024-03-07T13:44:36;6.47;;;5.20;;
32196;SDS011;18697;42.770;23.400;2024-03-07T13:47:03;6.32;;;5.05;;
32196;SDS011;18697;42.770;23.400;2024-03-07T13:49:30;6.82;;;4.85;;
32196;SDS011;18697;42.770;23.400;2024-03-07T13:51:59;8.27;;;5.55;;
32196;SDS011;18697;42.770;23.400;2024-03-07T13:54:35;6.75;;;5.05;;
32196;SDS011;18697;42.770;23.400;2024-03-07T14:05:44;10.10;;;6.35;;
32196;SDS011;18697;42.770;23.400;2024-03-07T14:08:33;8.70;;;5.53;;
32196;SDS011;18697;42.770;23.400;2024-03-07T14:20:13;41.45;;;17.92;;
32196;SDS011;18697;42.770;23.400;2024-03-07T14:25:19;29.38;;;13.27;;
32196;SDS011;18697;42.770;23.400;2024-03-07T14:30:52;31.50;;;17.15;;
32196;SDS011;18697;42.770;23.400;2024-03-07T14:33:24;20.23;;;10.57;;
32196;SDS011;18697;42.770;23.400;2024-03-07T14:38:34;11.63;;;7.22;;
32196;SDS011;18697;42.770;23.400;2024-03-07T14:41:09;13.02;;;8.07;;
32196;SDS011;18697;42.770;23.400;2024-03-07T14:43:37;9.27;;;7.05;;
32196;SDS011;18697;42.770;23.400;2024-03-07T14:46:04;12.50;;;7.47;;
32196;SDS011;18697;42.770;23.400;2024-03-07T14:48:30;8.48;;;6.20;;
32196;SDS011;18697;42.770;23.400;2024-03-07T14:50:56;16.33;;;10.13;;
32196;SDS011;18697;42.770;23.400;2024-03-07T14:53:21;14.40;;;9.52;;
32196;SDS011;18697;42.770;23.400;2024-03-07T14:55:48;15.73;;;8.73;;
32196;SDS011;18697;42.770;23.400;2024-03-07T14:58:14;13.65;;;9.02;;
32196;SDS011;18697;42.770;23.400;2024-03-07T15:00:41;8.25;;;6.20;;